sensor_id;sensor_type;location;lat;lon;timestamp;temperature;humidity
10042;DHT22;5061;49.068;12.058;2023-03-19T00:01:07;6.80;99.90
10042;DHT22;5061;49.068;12.058;2023-03-19T00:04:28;6.70;99.90
10042;DHT22;5061;49.068;12.058;2023-03-19T00:07:48;6.70;99.90
10042;DHT22;5061;49.068;12.058;2023-03-19T00:11:10;6.70;99.90
10042;DHT22;5061;49.068;12.058;2023-03-19T00:14:31;6.70;99.90
10042;DHT22;5061;49.068;12.058;2023-03-19T00:17:52;6.70;99.90
10042;DHT22;5061;49.068;12.058;2023-03-19T00:21:13;6.70;99.90
10042;DHT22;5061;49.068;12.058;2023-03-19T00:24:34;6.70;99.90
10042;DHT22;5061;49.068;12.058;2023-03-19T00:27:54;6.60;99.90
10042;DHT22;5061;49.068;12.058;2023-03-19T00:31:15;6.60;99.90
10042;DHT22;5061;49.068;12.058;2023-03-19T00:34:36;6.60;99.90
10042;DHT22;5061;49.068;12.058;2023-03-19T00:37:57;6.60;99.90
10042;DHT22;5061;49.068;12.058;2023-03-19T00:41:18;6.60;99.90
10042;DHT22;5061;49.068;12.058;2023-03-19T00:44:39;6.60;99.90
10042;DHT22;5061;49.068;12.058;2023-03-19T00:48:00;6.60;99.90
10042;DHT22;5061;49.068;12.058;2023-03-19T00:51:22;6.50;99.90
10042;DHT22;5061;49.068;12.058;2023-03-19T00:54:43;6.50;99.90
10042;DHT22;5061;49.068;12.058;2023-03-19T00:58:04;6.50;99.90
10042;DHT22;5061;49.068;12.058;2023-03-19T01:01:26;6.40;99.90
10042;DHT22;5061;49.068;12.058;2023-03-19T01:04:47;6.40;99.90
10042;DHT22;5061;49.068;12.058;2023-03-19T01:08:08;6.40;99.90
10042;DHT22;5061;49.068;12.058;2023-03-19T01:11:29;6.40;99.90
10042;DHT22;5061;49.068;12.058;2023-03-19T01:14:51;6.30;99.90
10042;DHT22;5061;49.068;12.058;2023-03-19T01:18:12;6.30;99.90
10042;DHT22;5061;49.068;12.058;2023-03-19T01:21:32;6.20;99.90
10042;DHT22;5061;49.068;12.058;2023-03-19T01:24:54;6.20;99.90
10042;DHT22;5061;49.068;12.058;2023-03-19T01:28:15;6.10;99.90
10042;DHT22;5061;49.068;12.058;2023-03-19T01:31:36;6.10;99.90
10042;DHT22;5061;49.068;12.058;2023-03-19T01:34:57;6.10;99.90
10042;DHT22;5061;49.068;12.058;2023-03-19T01:38:17;6.10;99.90
10042;DHT22;5061;49.068;12.058;2023-03-19T01:41:39;6.10;99.90
10042;DHT22;5061;49.068;12.058;2023-03-19T01:45:02;6.10;99.90
10042;DHT22;5061;49.068;12.058;2023-03-19T01:48:32;6.10;99.90
10042;DHT22;5061;49.068;12.058;2023-03-19T01:51:54;6.00;99.90
10042;DHT22;5061;49.068;12.058;2023-03-19T01:55:15;6.00;99.90
10042;DHT22;5061;49.068;12.058;2023-03-19T01:58:37;6.00;99.90
10042;DHT22;5061;49.068;12.058;2023-03-19T02:02:16;6.00;99.90
10042;DHT22;5061;49.068;12.058;2023-03-19T02:05:40;6.00;99.90
10042;DHT22;5061;49.068;12.058;2023-03-19T02:09:02;6.00;99.90
10042;DHT22;5061;49.068;12.058;2023-03-19T02:12:23;5.90;99.90
10042;DHT22;5061;49.068;12.058;2023-03-19T02:15:43;5.90;99.90
10042;DHT22;5061;49.068;12.058;2023-03-19T02:19:06;5.90;99.90
10042;DHT22;5061;49.068;12.058;2023-03-19T02:22:29;5.90;99.90
10042;DHT22;5061;49.068;12.058;2023-03-19T02:25:59;5.80;99.90
10042;DHT22;5061;49.068;12.058;2023-03-19T02:29:20;5.80;99.90
10042;DHT22;5061;49.068;12.058;2023-03-19T02:32:40;5.70;99.90
10042;DHT22;5061;49.068;12.058;2023-03-19T02:36:05;5.70;99.90
10042;DHT22;5061;49.068;12.058;2023-03-19T02:39:35;5.70;99.90
10042;DHT22;5061;49.068;12.058;2023-03-19T02:42:57;5.60;99.90
10042;DHT22;5061;49.068;12.058;2023-03-19T02:46:18;5.60;99.90
10042;DHT22;5061;49.068;12.058;2023-03-19T02:49:39;5.60;99.90
10042;DHT22;5061;49.068;12.058;2023-03-19T02:52:59;5.70;99.90
10042;DHT22;5061;49.068;12.058;2023-03-19T02:56:20;5.70;99.90
10042;DHT22;5061;49.068;12.058;2023-03-19T02:59:41;5.70;99.90
10042;DHT22;5061;49.068;12.058;2023-03-19T03:03:02;5.70;99.90
10042;DHT22;5061;49.068;12.058;2023-03-19T03:06:24;5.80;99.90
10042;DHT22;5061;49.068;12.058;2023-03-19T03:09:44;5.80;99.90
10042;DHT22;5061;49.068;12.058;2023-03-19T03:13:05;5.80;99.90
10042;DHT22;5061;49.068;12.058;2023-03-19T03:16:26;5.80;99.90
10042;DHT22;5061;49.068;12.058;2023-03-19T03:19:47;5.70;99.90
10042;DHT22;5061;49.068;12.058;2023-03-19T03:23:07;5.70;99.90
10042;DHT22;5061;49.068;12.058;2023-03-19T03:26:28;5.60;99.90
10042;DHT22;5061;49.068;12.058;2023-03-19T03:29:48;5.60;99.90
10042;DHT22;5061;49.068;12.058;2023-03-19T03:33:09;5.50;99.90
10042;DHT22;5061;49.068;12.058;2023-03-19T03:36:30;5.60;99.90
10042;DHT22;5061;49.068;12.058;2023-03-19T03:39:51;5.60;99.90
10042;DHT22;5061;49.068;12.058;2023-03-19T03:43:12;5.60;99.90
10042;DHT22;5061;49.068;12.058;2023-03-19T03:46:33;5.50;99.90
10042;DHT22;5061;49.068;12.058;2023-03-19T03:49:54;5.50;99.90
10042;DHT22;5061;49.068;12.058;2023-03-19T03:53:15;5.50;99.90
10042;DHT22;5061;49.068;12.058;2023-03-19T03:56:36;5.50;99.90
10042;DHT22;5061;49.068;12.058;2023-03-19T03:59:57;5.50;99.90
10042;DHT22;5061;49.068;12.058;2023-03-19T04:03:18;5.50;99.90
10042;DHT22;5061;49.068;12.058;2023-03-19T04:06:38;5.50;99.90
10042;DHT22;5061;49.068;12.058;2023-03-19T04:09:59;5.60;99.90
10042;DHT22;5061;49.068;12.058;2023-03-19T04:13:20;5.60;99.90
10042;DHT22;5061;49.068;12.058;2023-03-19T04:16:40;5.60;99.90
10042;DHT22;5061;49.068;12.058;2023-03-19T04:20:04;5.60;99.90
10042;DHT22;5061;49.068;12.058;2023-03-19T04:23:24;5.60;99.90
10042;DHT22;5061;49.068;12.058;2023-03-19T04:26:45;5.60;99.90
10042;DHT22;5061;49.068;12.058;2023-03-19T04:30:08;5.60;99.90
10042;DHT22;5061;49.068;12.058;2023-03-19T04:33:29;5.70;99.90
10042;DHT22;5061;49.068;12.058;2023-03-19T04:36:51;5.70;99.90
10042;DHT22;5061;49.068;12.058;2023-03-19T04:40:13;5.70;99.90
10042;DHT22;5061;49.068;12.058;2023-03-19T04:43:33;5.70;99.90
10042;DHT22;5061;49.068;12.058;2023-03-19T04:46:54;5.70;99.90
10042;DHT22;5061;49.068;12.058;2023-03-19T04:50:15;5.70;99.90
10042;DHT22;5061;49.068;12.058;2023-03-19T04:53:36;5.70;99.90
10042;DHT22;5061;49.068;12.058;2023-03-19T04:56:58;5.80;99.90
10042;DHT22;5061;49.068;12.058;2023-03-19T05:00:18;5.80;99.90
10042;DHT22;5061;49.068;12.058;2023-03-19T05:03:39;5.80;99.90
10042;DHT22;5061;49.068;12.058;2023-03-19T05:07:00;5.90;99.90
10042;DHT22;5061;49.068;12.058;2023-03-19T05:10:21;5.90;99.90
10042;DHT22;5061;49.068;12.058;2023-03-19T05:13:41;5.90;99.90
10042;DHT22;5061;49.068;12.058;2023-03-19T05:17:02;5.90;99.90
10042;DHT22;5061;49.068;12.058;2023-03-19T05:20:23;5.90;99.90
10042;DHT22;5061;49.068;12.058;2023-03-19T05:23:43;5.90;99.90
10042;DHT22;5061;49.068;12.058;2023-03-19T05:27:04;5.90;99.90
10042;DHT22;5061;49.068;12.058;2023-03-19T05:30:25;5.90;99.90
10042;DHT22;5061;49.068;12.058;2023-03-19T05:33:46;5.90;99.90
10042;DHT22;5061;49.068;12.058;2023-03-19T05:37:07;5.90;99.90
10042;DHT22;5061;49.068;12.058;2023-03-19T05:40:28;5.90;99.90
10042;DHT22;5061;49.068;12.058;2023-03-19T05:43:49;6.00;99.90
10042;DHT22;5061;49.068;12.058;2023-03-19T05:47:10;6.00;99.90
10042;DHT22;5061;49.068;12.058;2023-03-19T05:50:31;6.00;99.90
10042;DHT22;5061;49.068;12.058;2023-03-19T05:53:53;6.00;99.90
10042;DHT22;5061;49.068;12.058;2023-03-19T05:57:14;6.00;99.90
10042;DHT22;5061;49.068;12.058;2023-03-19T06:00:35;6.00;99.90
10042;DHT22;5061;49.068;12.058;2023-03-19T06:03:56;6.00;99.90
10042;DHT22;5061;49.068;12.058;2023-03-19T06:07:16;6.00;99.90
10042;DHT22;5061;49.068;12.058;2023-03-19T06:10:37;6.00;99.90
10042;DHT22;5061;49.068;12.058;2023-03-19T06:13:58;6.00;99.90
10042;DHT22;5061;49.068;12.058;2023-03-19T06:17:19;6.00;99.90
10042;DHT22;5061;49.068;12.058;2023-03-19T06:20:39;6.00;99.90
10042;DHT22;5061;49.068;12.058;2023-03-19T06:24:00;6.00;99.90
10042;DHT22;5061;49.068;12.058;2023-03-19T06:27:21;6.00;99.90
10042;DHT22;5061;49.068;12.058;2023-03-19T06:30:41;6.10;99.90
10042;DHT22;5061;49.068;12.058;2023-03-19T06:34:02;6.10;99.90
10042;DHT22;5061;49.068;12.058;2023-03-19T06:37:23;6.10;99.90
10042;DHT22;5061;49.068;12.058;2023-03-19T06:40:43;6.10;99.90
10042;DHT22;5061;49.068;12.058;2023-03-19T06:44:04;6.10;99.90
10042;DHT22;5061;49.068;12.058;2023-03-19T06:47:25;6.10;99.90
10042;DHT22;5061;49.068;12.058;2023-03-19T06:50:46;6.10;99.90
10042;DHT22;5061;49.068;12.058;2023-03-19T06:54:07;6.10;99.90
10042;DHT22;5061;49.068;12.058;2023-03-19T06:57:27;6.10;99.90
10042;DHT22;5061;49.068;12.058;2023-03-19T07:00:48;6.10;99.90
10042;DHT22;5061;49.068;12.058;2023-03-19T07:04:09;6.10;99.90
10042;DHT22;5061;49.068;12.058;2023-03-19T07:07:33;6.10;99.90
10042;DHT22;5061;49.068;12.058;2023-03-19T07:10:54;6.10;99.90
10042;DHT22;5061;49.068;12.058;2023-03-19T07:14:16;6.10;99.90
10042;DHT22;5061;49.068;12.058;2023-03-19T07:17:36;6.20;99.90
10042;DHT22;5061;49.068;12.058;2023-03-19T07:20:57;6.10;99.90
10042;DHT22;5061;49.068;12.058;2023-03-19T07:24:17;6.20;99.90
10042;DHT22;5061;49.068;12.058;2023-03-19T07:27:38;6.20;99.90
10042;DHT22;5061;49.068;12.058;2023-03-19T07:30:59;6.30;99.90
10042;DHT22;5061;49.068;12.058;2023-03-19T07:34:19;6.30;99.90
10042;DHT22;5061;49.068;12.058;2023-03-19T07:37:41;6.40;99.90
10042;DHT22;5061;49.068;12.058;2023-03-19T07:41:01;6.40;99.90
10042;DHT22;5061;49.068;12.058;2023-03-19T07:44:23;6.50;99.90
10042;DHT22;5061;49.068;12.058;2023-03-19T07:47:44;6.50;99.90
10042;DHT22;5061;49.068;12.058;2023-03-19T07:51:04;6.60;99.90
10042;DHT22;5061;49.068;12.058;2023-03-19T07:54:25;6.70;99.90
10042;DHT22;5061;49.068;12.058;2023-03-19T07:57:46;6.70;99.90
10042;DHT22;5061;49.068;12.058;2023-03-19T08:01:07;6.80;99.90
10042;DHT22;5061;49.068;12.058;2023-03-19T08:04:27;6.90;99.90
10042;DHT22;5061;49.068;12.058;2023-03-19T08:07:48;7.00;99.90
10042;DHT22;5061;49.068;12.058;2023-03-19T08:11:10;7.10;99.90
10042;DHT22;5061;49.068;12.058;2023-03-19T08:14:32;7.20;99.90
10042;DHT22;5061;49.068;12.058;2023-03-19T08:17:57;7.30;99.90
10042;DHT22;5061;49.068;12.058;2023-03-19T08:21:18;7.40;99.90
10042;DHT22;5061;49.068;12.058;2023-03-19T08:24:39;7.50;99.90
10042;DHT22;5061;49.068;12.058;2023-03-19T08:28:00;7.60;99.90
10042;DHT22;5061;49.068;12.058;2023-03-19T08:31:20;7.80;99.90
10042;DHT22;5061;49.068;12.058;2023-03-19T08:34:41;7.90;99.90
10042;DHT22;5061;49.068;12.058;2023-03-19T08:38:02;7.90;99.90
10042;DHT22;5061;49.068;12.058;2023-03-19T08:41:23;8.10;99.90
10042;DHT22;5061;49.068;12.058;2023-03-19T08:44:43;8.10;99.90
10042;DHT22;5061;49.068;12.058;2023-03-19T08:48:04;8.20;99.90
10042;DHT22;5061;49.068;12.058;2023-03-19T08:51:25;8.30;99.90
10042;DHT22;5061;49.068;12.058;2023-03-19T08:54:47;8.40;99.90
10042;DHT22;5061;49.068;12.058;2023-03-19T08:58:08;8.50;99.90
10042;DHT22;5061;49.068;12.058;2023-03-19T09:01:28;8.60;99.90
10042;DHT22;5061;49.068;12.058;2023-03-19T09:04:49;8.80;99.90
10042;DHT22;5061;49.068;12.058;2023-03-19T09:08:10;8.90;99.90
10042;DHT22;5061;49.068;12.058;2023-03-19T09:11:31;9.00;99.90
10042;DHT22;5061;49.068;12.058;2023-03-19T09:14:52;9.00;99.90
10042;DHT22;5061;49.068;12.058;2023-03-19T09:18:13;9.20;99.90
10042;DHT22;5061;49.068;12.058;2023-03-19T09:21:33;9.30;99.90
10042;DHT22;5061;49.068;12.058;2023-03-19T09:24:54;9.40;99.90
10042;DHT22;5061;49.068;12.058;2023-03-19T09:28:15;9.50;99.90
10042;DHT22;5061;49.068;12.058;2023-03-19T09:31:36;9.70;99.90
10042;DHT22;5061;49.068;12.058;2023-03-19T09:34:57;9.80;99.90
10042;DHT22;5061;49.068;12.058;2023-03-19T09:38:19;9.90;99.90
10042;DHT22;5061;49.068;12.058;2023-03-19T09:41:56;10.00;99.90
10042;DHT22;5061;49.068;12.058;2023-03-19T09:45:23;10.20;99.90
10042;DHT22;5061;49.068;12.058;2023-03-19T09:56:01;10.60;99.90
10042;DHT22;5061;49.068;12.058;2023-03-19T09:59:24;10.70;99.90
10042;DHT22;5061;49.068;12.058;2023-03-19T10:03:15;10.90;99.90
10042;DHT22;5061;49.068;12.058;2023-03-19T10:06:36;11.00;99.90
10042;DHT22;5061;49.068;12.058;2023-03-19T10:10:33;11.00;99.90
10042;DHT22;5061;49.068;12.058;2023-03-19T10:14:19;11.00;99.90
10042;DHT22;5061;49.068;12.058;2023-03-19T10:21:36;11.10;99.90
10042;DHT22;5061;49.068;12.058;2023-03-19T10:24:57;11.10;99.90
10042;DHT22;5061;49.068;12.058;2023-03-19T10:28:19;11.20;99.90
10042;DHT22;5061;49.068;12.058;2023-03-19T10:32:11;11.20;99.90
10042;DHT22;5061;49.068;12.058;2023-03-19T10:35:48;11.20;99.90
10042;DHT22;5061;49.068;12.058;2023-03-19T10:39:14;11.20;99.90
10042;DHT22;5061;49.068;12.058;2023-03-19T10:46:17;11.20;99.90
10042;DHT22;5061;49.068;12.058;2023-03-19T10:49:39;11.20;99.90
10042;DHT22;5061;49.068;12.058;2023-03-19T10:53:04;11.20;99.90
10042;DHT22;5061;49.068;12.058;2023-03-19T10:56:28;11.20;99.90
10042;DHT22;5061;49.068;12.058;2023-03-19T10:59:52;11.30;99.90
10042;DHT22;5061;49.068;12.058;2023-03-19T11:03:35;11.30;99.90
10042;DHT22;5061;49.068;12.058;2023-03-19T11:07:10;11.40;99.90
10042;DHT22;5061;49.068;12.058;2023-03-19T11:10:33;11.40;99.90
10042;DHT22;5061;49.068;12.058;2023-03-19T11:13:55;11.50;99.90
10042;DHT22;5061;49.068;12.058;2023-03-19T11:17:17;11.50;99.90
10042;DHT22;5061;49.068;12.058;2023-03-19T11:20:39;11.50;99.90
10042;DHT22;5061;49.068;12.058;2023-03-19T11:24:02;11.50;99.90
10042;DHT22;5061;49.068;12.058;2023-03-19T11:38:17;11.70;99.90
10042;DHT22;5061;49.068;12.058;2023-03-19T11:41:57;11.80;99.90
10042;DHT22;5061;49.068;12.058;2023-03-19T11:45:43;11.90;99.90
10042;DHT22;5061;49.068;12.058;2023-03-19T11:53:06;12.00;99.90
10042;DHT22;5061;49.068;12.058;2023-03-19T12:00:12;12.10;99.90
10042;DHT22;5061;49.068;12.058;2023-03-19T12:11:16;12.30;99.90
10042;DHT22;5061;49.068;12.058;2023-03-19T12:19:03;12.50;99.90
10042;DHT22;5061;49.068;12.058;2023-03-19T12:29:57;12.80;99.90
10042;DHT22;5061;49.068;12.058;2023-03-19T12:44:12;13.00;99.90
10042;DHT22;5061;49.068;12.058;2023-03-19T12:47:38;13.00;99.90
10042;DHT22;5061;49.068;12.058;2023-03-19T12:51:04;13.10;99.90
10042;DHT22;5061;49.068;12.058;2023-03-19T12:54:32;13.30;99.90
10042;DHT22;5061;49.068;12.058;2023-03-19T12:57:57;13.40;99.90
10042;DHT22;5061;49.068;12.058;2023-03-19T13:01:23;13.50;99.90
10042;DHT22;5061;49.068;12.058;2023-03-19T13:04:52;13.60;99.90
10042;DHT22;5061;49.068;12.058;2023-03-19T13:11:56;13.90;99.90
10042;DHT22;5061;49.068;12.058;2023-03-19T13:15:30;14.20;99.90
10042;DHT22;5061;49.068;12.058;2023-03-19T13:22:53;14.40;99.90
10042;DHT22;5061;49.068;12.058;2023-03-19T13:26:15;14.40;99.90
10042;DHT22;5061;49.068;12.058;2023-03-19T13:29:52;14.40;99.90
10042;DHT22;5061;49.068;12.058;2023-03-19T13:33:20;14.30;99.90
10042;DHT22;5061;49.068;12.058;2023-03-19T13:36:44;14.50;99.90
10042;DHT22;5061;49.068;12.058;2023-03-19T13:44:34;14.70;99.90
10042;DHT22;5061;49.068;12.058;2023-03-19T13:51:48;14.80;99.90
10042;DHT22;5061;49.068;12.058;2023-03-19T13:58:51;14.80;99.90
10042;DHT22;5061;49.068;12.058;2023-03-19T14:05:46;14.80;99.90
10042;DHT22;5061;49.068;12.058;2023-03-19T14:09:27;14.90;99.90
10042;DHT22;5061;49.068;12.058;2023-03-19T14:12:49;15.10;99.90
10042;DHT22;5061;49.068;12.058;2023-03-19T14:16:19;15.20;99.90
10042;DHT22;5061;49.068;12.058;2023-03-19T14:19:41;15.40;99.90
10042;DHT22;5061;49.068;12.058;2023-03-19T14:23:24;15.50;99.90
10042;DHT22;5061;49.068;12.058;2023-03-19T14:26:45;15.70;99.90
10042;DHT22;5061;49.068;12.058;2023-03-19T14:30:14;15.70;99.90
10042;DHT22;5061;49.068;12.058;2023-03-19T14:33:44;15.70;99.90
10042;DHT22;5061;49.068;12.058;2023-03-19T14:40:47;15.40;99.90
10042;DHT22;5061;49.068;12.058;2023-03-19T14:48:15;15.20;99.90
10042;DHT22;5061;49.068;12.058;2023-03-19T14:51:50;15.10;99.90
10042;DHT22;5061;49.068;12.058;2023-03-19T14:55:15;15.00;99.90
10042;DHT22;5061;49.068;12.058;2023-03-19T14:58:36;14.80;99.90
10042;DHT22;5061;49.068;12.058;2023-03-19T15:01:57;14.70;99.90
10042;DHT22;5061;49.068;12.058;2023-03-19T15:05:38;14.70;99.90
10042;DHT22;5061;49.068;12.058;2023-03-19T15:08:59;14.80;99.90
10042;DHT22;5061;49.068;12.058;2023-03-19T15:13:22;14.90;99.90
10042;DHT22;5061;49.068;12.058;2023-03-19T15:20:17;14.90;99.90
10042;DHT22;5061;49.068;12.058;2023-03-19T15:23:43;14.80;99.90
10042;DHT22;5061;49.068;12.058;2023-03-19T15:30:39;14.60;99.90
10042;DHT22;5061;49.068;12.058;2023-03-19T15:34:00;14.60;99.90
10042;DHT22;5061;49.068;12.058;2023-03-19T15:37:21;14.50;99.90
10042;DHT22;5061;49.068;12.058;2023-03-19T15:40:41;14.40;99.90
10042;DHT22;5061;49.068;12.058;2023-03-19T15:44:05;14.40;99.90
10042;DHT22;5061;49.068;12.058;2023-03-19T15:47:30;14.40;99.90
10042;DHT22;5061;49.068;12.058;2023-03-19T15:50:55;14.30;99.90
10042;DHT22;5061;49.068;12.058;2023-03-19T15:54:17;14.30;99.90
10042;DHT22;5061;49.068;12.058;2023-03-19T15:57:41;14.20;99.90
10042;DHT22;5061;49.068;12.058;2023-03-19T16:01:06;14.20;99.90
10042;DHT22;5061;49.068;12.058;2023-03-19T16:04:27;14.10;99.90
10042;DHT22;5061;49.068;12.058;2023-03-19T16:07:53;14.00;99.90
10042;DHT22;5061;49.068;12.058;2023-03-19T16:11:36;14.00;99.90
10042;DHT22;5061;49.068;12.058;2023-03-19T16:14:57;13.90;99.90
10042;DHT22;5061;49.068;12.058;2023-03-19T16:21:40;13.80;99.90
10042;DHT22;5061;49.068;12.058;2023-03-19T16:25:01;13.80;99.90
10042;DHT22;5061;49.068;12.058;2023-03-19T16:28:27;13.70;99.90
10042;DHT22;5061;49.068;12.058;2023-03-19T16:32:01;13.70;99.90
10042;DHT22;5061;49.068;12.058;2023-03-19T16:35:22;13.70;99.90
10042;DHT22;5061;49.068;12.058;2023-03-19T16:38:56;13.70;99.90
10042;DHT22;5061;49.068;12.058;2023-03-19T16:46:08;13.70;99.90
10042;DHT22;5061;49.068;12.058;2023-03-19T16:49:31;13.60;99.90
10042;DHT22;5061;49.068;12.058;2023-03-19T16:52:52;13.50;99.90
10042;DHT22;5061;49.068;12.058;2023-03-19T16:56:14;13.40;99.90
10042;DHT22;5061;49.068;12.058;2023-03-19T16:59:35;13.30;99.90
10042;DHT22;5061;49.068;12.058;2023-03-19T17:02:55;13.20;99.90
10042;DHT22;5061;49.068;12.058;2023-03-19T17:06:17;13.10;99.90
10042;DHT22;5061;49.068;12.058;2023-03-19T17:09:38;13.00;99.90
10042;DHT22;5061;49.068;12.058;2023-03-19T17:12:59;12.80;99.90
10042;DHT22;5061;49.068;12.058;2023-03-19T17:16:20;12.70;99.90
10042;DHT22;5061;49.068;12.058;2023-03-19T17:19:41;12.70;99.90
10042;DHT22;5061;49.068;12.058;2023-03-19T17:23:10;12.60;99.90
10042;DHT22;5061;49.068;12.058;2023-03-19T17:26:31;12.50;99.90
10042;DHT22;5061;49.068;12.058;2023-03-19T17:29:52;12.40;99.90
10042;DHT22;5061;49.068;12.058;2023-03-19T17:33:27;12.20;99.90
10042;DHT22;5061;49.068;12.058;2023-03-19T17:37:00;12.10;99.90
10042;DHT22;5061;49.068;12.058;2023-03-19T17:40:24;12.00;99.90
10042;DHT22;5061;49.068;12.058;2023-03-19T17:43:47;11.90;99.90
10042;DHT22;5061;49.068;12.058;2023-03-19T17:47:08;11.80;99.90
10042;DHT22;5061;49.068;12.058;2023-03-19T17:50:30;11.70;99.90
10042;DHT22;5061;49.068;12.058;2023-03-19T17:53:53;11.60;99.90
10042;DHT22;5061;49.068;12.058;2023-03-19T17:57:14;11.50;99.90
10042;DHT22;5061;49.068;12.058;2023-03-19T18:00:35;11.40;99.90
10042;DHT22;5061;49.068;12.058;2023-03-19T18:03:57;11.30;99.90
10042;DHT22;5061;49.068;12.058;2023-03-19T18:07:18;11.20;99.90
10042;DHT22;5061;49.068;12.058;2023-03-19T18:10:39;11.20;99.90
10042;DHT22;5061;49.068;12.058;2023-03-19T18:13:59;11.10;99.90
10042;DHT22;5061;49.068;12.058;2023-03-19T18:17:20;11.10;99.90
10042;DHT22;5061;49.068;12.058;2023-03-19T18:20:41;11.00;99.90
10042;DHT22;5061;49.068;12.058;2023-03-19T18:24:01;10.90;99.90
10042;DHT22;5061;49.068;12.058;2023-03-19T18:27:22;10.80;99.90
10042;DHT22;5061;49.068;12.058;2023-03-19T18:30:44;10.70;99.90
10042;DHT22;5061;49.068;12.058;2023-03-19T18:34:09;10.60;99.90
10042;DHT22;5061;49.068;12.058;2023-03-19T18:37:31;10.60;99.90
10042;DHT22;5061;49.068;12.058;2023-03-19T18:40:52;10.50;99.90
10042;DHT22;5061;49.068;12.058;2023-03-19T18:44:13;10.40;99.90
10042;DHT22;5061;49.068;12.058;2023-03-19T18:47:34;10.30;99.90
10042;DHT22;5061;49.068;12.058;2023-03-19T18:50:55;10.30;99.90
10042;DHT22;5061;49.068;12.058;2023-03-19T18:54:16;10.20;99.90
10042;DHT22;5061;49.068;12.058;2023-03-19T18:57:39;10.20;99.90
10042;DHT22;5061;49.068;12.058;2023-03-19T19:01:01;10.10;99.90
10042;DHT22;5061;49.068;12.058;2023-03-19T19:04:23;10.00;99.90
10042;DHT22;5061;49.068;12.058;2023-03-19T19:07:44;10.00;99.90
10042;DHT22;5061;49.068;12.058;2023-03-19T19:11:05;9.90;99.90
10042;DHT22;5061;49.068;12.058;2023-03-19T19:14:27;9.80;99.90
10042;DHT22;5061;49.068;12.058;2023-03-19T19:17:51;9.80;99.90
10042;DHT22;5061;49.068;12.058;2023-03-19T19:21:13;9.70;99.90
10042;DHT22;5061;49.068;12.058;2023-03-19T19:24:34;9.70;99.90
10042;DHT22;5061;49.068;12.058;2023-03-19T19:28:03;9.70;99.90
10042;DHT22;5061;49.068;12.058;2023-03-19T19:31:29;9.60;99.90
10042;DHT22;5061;49.068;12.058;2023-03-19T19:34:51;9.50;99.90
10042;DHT22;5061;49.068;12.058;2023-03-19T19:38:12;9.50;99.90
10042;DHT22;5061;49.068;12.058;2023-03-19T19:41:33;9.50;99.90
10042;DHT22;5061;49.068;12.058;2023-03-19T19:44:55;9.50;99.90
10042;DHT22;5061;49.068;12.058;2023-03-19T19:48:20;9.40;99.90
10042;DHT22;5061;49.068;12.058;2023-03-19T19:51:41;9.30;99.90
10042;DHT22;5061;49.068;12.058;2023-03-19T19:55:02;9.20;99.90
10042;DHT22;5061;49.068;12.058;2023-03-19T19:58:30;9.20;99.90
10042;DHT22;5061;49.068;12.058;2023-03-19T20:01:51;9.10;99.90
10042;DHT22;5061;49.068;12.058;2023-03-19T20:05:17;9.00;99.90
10042;DHT22;5061;49.068;12.058;2023-03-19T20:08:39;9.00;99.90
10042;DHT22;5061;49.068;12.058;2023-03-19T20:12:03;9.00;99.90
10042;DHT22;5061;49.068;12.058;2023-03-19T20:15:32;9.00;99.90
10042;DHT22;5061;49.068;12.058;2023-03-19T20:18:53;8.90;99.90
10042;DHT22;5061;49.068;12.058;2023-03-19T20:22:14;8.90;99.90
10042;DHT22;5061;49.068;12.058;2023-03-19T20:25:35;8.90;99.90
10042;DHT22;5061;49.068;12.058;2023-03-19T20:28:56;8.80;99.90
10042;DHT22;5061;49.068;12.058;2023-03-19T20:32:47;8.80;99.90
10042;DHT22;5061;49.068;12.058;2023-03-19T20:36:12;8.70;99.90
10042;DHT22;5061;49.068;12.058;2023-03-19T20:39:34;8.50;99.90
10042;DHT22;5061;49.068;12.058;2023-03-19T20:42:55;8.30;99.90
10042;DHT22;5061;49.068;12.058;2023-03-19T20:46:18;8.20;99.90
10042;DHT22;5061;49.068;12.058;2023-03-19T20:49:39;8.20;99.90
10042;DHT22;5061;49.068;12.058;2023-03-19T20:53:00;8.20;99.90
10042;DHT22;5061;49.068;12.058;2023-03-19T20:56:22;8.20;99.90
10042;DHT22;5061;49.068;12.058;2023-03-19T20:59:46;8.20;99.90
10042;DHT22;5061;49.068;12.058;2023-03-19T21:03:17;8.20;99.90
10042;DHT22;5061;49.068;12.058;2023-03-19T21:06:38;8.20;99.90
10042;DHT22;5061;49.068;12.058;2023-03-19T21:10:04;8.20;99.90
10042;DHT22;5061;49.068;12.058;2023-03-19T21:13:31;8.30;99.90
10042;DHT22;5061;49.068;12.058;2023-03-19T21:16:52;8.30;99.90
10042;DHT22;5061;49.068;12.058;2023-03-19T21:20:22;8.30;99.90
10042;DHT22;5061;49.068;12.058;2023-03-19T21:24:14;8.40;99.90
10042;DHT22;5061;49.068;12.058;2023-03-19T21:27:44;8.40;99.90
10042;DHT22;5061;49.068;12.058;2023-03-19T21:31:07;8.40;99.90
10042;DHT22;5061;49.068;12.058;2023-03-19T21:34:31;8.50;99.90
10042;DHT22;5061;49.068;12.058;2023-03-19T21:37:53;8.50;99.90
10042;DHT22;5061;49.068;12.058;2023-03-19T21:41:25;8.50;99.90
10042;DHT22;5061;49.068;12.058;2023-03-19T21:44:55;8.50;99.90
10042;DHT22;5061;49.068;12.058;2023-03-19T21:48:29;8.40;99.90
10042;DHT22;5061;49.068;12.058;2023-03-19T21:51:50;8.40;99.90
10042;DHT22;5061;49.068;12.058;2023-03-19T21:55:16;8.40;99.90
10042;DHT22;5061;49.068;12.058;2023-03-19T21:58:37;8.40;99.90
10042;DHT22;5061;49.068;12.058;2023-03-19T22:01:58;8.40;99.90
10042;DHT22;5061;49.068;12.058;2023-03-19T22:05:24;8.40;99.90
10042;DHT22;5061;49.068;12.058;2023-03-19T22:08:45;8.40;99.90
10042;DHT22;5061;49.068;12.058;2023-03-19T22:12:25;8.40;99.90
10042;DHT22;5061;49.068;12.058;2023-03-19T22:15:48;8.40;99.90
10042;DHT22;5061;49.068;12.058;2023-03-19T22:19:14;8.40;99.90
10042;DHT22;5061;49.068;12.058;2023-03-19T22:22:35;8.50;99.90
10042;DHT22;5061;49.068;12.058;2023-03-19T22:25:56;8.50;99.90
10042;DHT22;5061;49.068;12.058;2023-03-19T22:29:19;8.50;99.90
10042;DHT22;5061;49.068;12.058;2023-03-19T22:32:42;8.50;99.90
10042;DHT22;5061;49.068;12.058;2023-03-19T22:36:02;8.50;99.90
10042;DHT22;5061;49.068;12.058;2023-03-19T22:39:23;8.50;99.90
10042;DHT22;5061;49.068;12.058;2023-03-19T22:42:45;8.50;99.90
10042;DHT22;5061;49.068;12.058;2023-03-19T22:46:13;8.50;99.90
10042;DHT22;5061;49.068;12.058;2023-03-19T22:49:34;8.50;99.90
10042;DHT22;5061;49.068;12.058;2023-03-19T22:52:56;8.50;99.90
10042;DHT22;5061;49.068;12.058;2023-03-19T22:56:19;8.60;99.90
10042;DHT22;5061;49.068;12.058;2023-03-19T22:59:40;8.60;99.90
10042;DHT22;5061;49.068;12.058;2023-03-19T23:03:02;8.60;99.90
10042;DHT22;5061;49.068;12.058;2023-03-19T23:06:24;8.60;99.90
10042;DHT22;5061;49.068;12.058;2023-03-19T23:09:48;8.60;99.90
10042;DHT22;5061;49.068;12.058;2023-03-19T23:13:09;8.50;99.90
10042;DHT22;5061;49.068;12.058;2023-03-19T23:16:30;8.50;99.90
10042;DHT22;5061;49.068;12.058;2023-03-19T23:19:51;8.50;99.90
10042;DHT22;5061;49.068;12.058;2023-03-19T23:23:16;8.40;99.90
10042;DHT22;5061;49.068;12.058;2023-03-19T23:26:37;8.40;99.90